Terminal Aerodrome Forecast
Issued by NWS

Home | Current Version | Previous Version | Text Only | Print | Product List | Glossary On
Versions: 1 2 3 4 5 6 7 8 9 10 11 12 13 14 15 16 17 18 19 20 21 22 23 24 25 26 27 28 29 30 31 32 33 34 35
000
FTUS43 KMKX 061728
TAFENW
TAF
KENW 061728Z 0618/0718 19012KT P6SM VCTS BKN250CB
      TEMPO 0618/0619 4SM -TSRA OVC035CB
     FM061900 20013KT P6SM VCSH OVC050
     FM070000 21009KT 6SM -SHRA BKN090
     FM070100 21009KT P6SM VCTS BKN090CB
     FM070300 20008KT 6SM -SHRA BKN080
     FM070700 24009KT 6SM BR OVC008
     FM070800 27009KT 6SM BR OVC008
     FM071000 31010KT 6SM BR OVC008
     FM071100 34010KT P6SM OVC015
     FM071400 01012G19KT P6SM BKN025
     FM071600 01013G21KT P6SM SCT080=

USA.gov is the U.S. government's official web portal to all federal, state and local government web resources and services.